createdAt,value
2023-04-18T00:00:25.301Z,2.30
2023-04-18T00:02:55.088Z,2.72
2023-04-18T00:05:23.118Z,2.05
2023-04-18T00:07:51.468Z,2.50
2023-04-18T00:10:19.330Z,1.90
2023-04-18T00:12:47.329Z,2.00
2023-04-18T00:15:15.001Z,1.90
2023-04-18T00:17:42.702Z,2.00
2023-04-18T00:20:11.303Z,2.15
2023-04-18T00:22:43.881Z,2.00
2023-04-18T00:25:11.708Z,2.35
2023-04-18T00:27:39.632Z,2.00
2023-04-18T00:30:09.022Z,1.60
2023-04-18T00:32:38.945Z,1.88
2023-04-18T00:35:07.273Z,2.13
2023-04-18T00:37:35.099Z,1.85
2023-04-18T00:40:02.576Z,1.95
2023-04-18T00:42:30.029Z,3.10
2023-04-18T00:44:57.636Z,3.10
2023-04-18T00:47:25.819Z,2.77
2023-04-18T00:49:54.441Z,2.75
2023-04-18T00:52:22.082Z,2.42
2023-04-18T00:54:49.957Z,2.65
2023-04-18T00:57:17.839Z,2.42
2023-04-18T00:59:47.286Z,2.88
2023-04-18T01:02:14.823Z,3.30
2023-04-18T01:04:45.533Z,2.63
2023-04-18T01:07:13.142Z,2.85
2023-04-18T01:09:41.165Z,2.40
2023-04-18T01:12:08.682Z,2.13
2023-04-18T01:14:36.270Z,2.40
2023-04-18T01:17:04.091Z,2.08
2023-04-18T01:19:31.783Z,2.70
2023-04-18T01:21:59.713Z,2.15
2023-04-18T01:24:29.806Z,2.22
2023-04-18T01:26:57.573Z,2.70
2023-04-18T01:29:26.116Z,2.58
2023-04-18T01:31:53.827Z,2.45
2023-04-18T01:34:21.312Z,2.30
2023-04-18T01:36:48.880Z,2.57
2023-04-18T01:39:18.346Z,2.10
2023-04-18T01:41:46.340Z,2.65
2023-04-18T01:44:14.147Z,2.80
2023-04-18T01:46:41.950Z,2.40
2023-04-18T01:49:10.603Z,2.67
2023-04-18T01:51:39.016Z,2.30
2023-04-18T01:54:06.642Z,2.33
2023-04-18T01:56:34.253Z,2.70
2023-04-18T01:59:03.088Z,2.85
2023-04-18T02:01:30.590Z,2.80
2023-04-18T02:03:59.723Z,3.05
2023-04-18T02:06:27.297Z,2.25
2023-04-18T02:08:54.847Z,2.37
2023-04-18T02:11:25.565Z,3.00
2023-04-18T02:13:53.039Z,3.30
2023-04-18T02:16:20.706Z,2.60
2023-04-18T02:18:52.462Z,2.60
2023-04-18T02:21:20.014Z,2.88
2023-04-18T02:23:49.698Z,2.85
2023-04-18T02:26:17.212Z,2.27
2023-04-18T02:28:44.715Z,2.57
2023-04-18T02:31:14.890Z,2.95
2023-04-18T02:33:44.540Z,2.90
2023-04-18T02:36:15.252Z,2.47
2023-04-18T02:38:43.393Z,2.42
2023-04-18T02:41:15.122Z,2.27
2023-04-18T02:43:42.849Z,2.40
2023-04-18T02:46:10.797Z,2.50
2023-04-18T02:48:38.537Z,2.95
2023-04-18T02:51:08.913Z,1.98
2023-04-18T02:53:38.589Z,2.35
2023-04-18T02:56:07.109Z,2.70
2023-04-18T03:01:47.699Z,2.55
2023-04-18T03:04:18.585Z,2.10
2023-04-18T03:07:04.288Z,2.22
2023-04-18T03:09:35.954Z,2.55
2023-04-18T03:12:08.856Z,2.17
2023-04-18T03:17:06.287Z,2.88
2023-04-18T03:19:39.872Z,2.40
2023-04-18T03:22:10.668Z,2.45
2023-04-18T03:24:45.405Z,2.75
2023-04-18T03:27:13.690Z,3.03
2023-04-18T03:29:43.132Z,2.90
2023-04-18T03:32:11.549Z,3.42
2023-04-18T03:34:39.603Z,3.85
2023-04-18T03:37:08.721Z,2.80
2023-04-18T03:39:41.965Z,3.10
2023-04-18T03:42:10.176Z,2.53
2023-04-18T03:44:37.789Z,10.30
2023-04-18T03:47:06.004Z,7.47
2023-04-18T03:49:36.395Z,16.08
2023-04-18T03:52:04.739Z,5.85
2023-04-18T03:54:32.257Z,3.13
2023-04-18T03:56:59.846Z,3.10
2023-04-18T03:59:30.290Z,3.58
2023-04-18T04:01:57.845Z,3.20
2023-04-18T04:04:26.201Z,3.28
2023-04-18T04:09:21.510Z,3.40
2023-04-18T04:11:50.970Z,4.72
2023-04-18T04:14:18.536Z,5.72
2023-04-18T04:19:17.160Z,5.47
2023-04-18T04:22:07.807Z,4.85
2023-04-18T04:24:38.555Z,4.13
2023-04-18T04:27:08.092Z,3.70
2023-04-18T04:29:39.216Z,3.92
2023-04-18T04:32:08.176Z,3.30
2023-04-18T04:34:41.419Z,3.45
2023-04-18T04:37:14.021Z,6.40
2023-04-18T04:39:52.889Z,5.90
2023-04-18T04:42:41.140Z,5.78
2023-04-18T04:45:15.365Z,7.75
2023-04-18T04:47:42.932Z,5.63
2023-04-18T04:50:14.819Z,3.43
2023-04-18T04:52:42.767Z,3.85
2023-04-18T04:55:11.059Z,3.70
2023-04-18T04:57:38.599Z,4.22
2023-04-18T05:00:20.998Z,6.22
2023-04-18T05:02:50.142Z,7.32
2023-04-18T05:07:45.644Z,6.33
2023-04-18T05:10:13.227Z,3.00
2023-04-18T05:12:40.682Z,19.23
2023-04-18T05:15:08.794Z,6.20
2023-04-18T05:17:36.457Z,6.40
2023-04-18T05:20:05.416Z,8.05
2023-04-18T05:22:33.080Z,5.80
2023-04-18T05:25:00.982Z,5.28
2023-04-18T05:27:28.678Z,5.07
2023-04-18T05:29:56.307Z,3.47
2023-04-18T05:32:23.844Z,3.80
2023-04-18T05:34:51.857Z,3.10
2023-04-18T05:37:19.310Z,3.20
2023-04-18T05:39:46.841Z,2.40
2023-04-18T05:42:14.454Z,2.63
2023-04-18T05:44:41.865Z,3.40
2023-04-18T05:47:09.372Z,2.05
2023-04-18T05:49:37.080Z,3.00
2023-04-18T05:52:04.848Z,2.97
2023-04-18T05:54:32.386Z,2.60
2023-04-18T05:57:01.311Z,2.43
2023-04-18T05:59:30.008Z,2.90
2023-04-18T06:01:57.541Z,3.35
2023-04-18T06:04:25.180Z,3.00
2023-04-18T06:06:52.917Z,4.32
2023-04-18T06:09:20.375Z,4.40
2023-04-18T06:11:47.968Z,3.47
2023-04-18T06:14:16.011Z,3.20
2023-04-18T06:16:43.761Z,2.40
2023-04-18T06:19:11.284Z,2.72
2023-04-18T06:21:39.585Z,3.05
2023-04-18T06:24:07.382Z,2.22
2023-04-18T06:26:35.446Z,3.22
2023-04-18T06:29:03.018Z,4.05
2023-04-18T06:31:30.668Z,3.80
2023-04-18T06:33:58.131Z,4.57
2023-04-18T06:36:27.548Z,2.90
2023-04-18T06:38:55.201Z,3.97
2023-04-18T06:41:22.848Z,2.50
2023-04-18T06:44:02.744Z,2.42
2023-04-18T06:46:33.128Z,2.15
2023-04-18T06:49:00.826Z,2.28
2023-04-18T06:51:29.045Z,3.17
2023-04-18T06:56:23.984Z,3.92
2023-04-18T06:58:52.952Z,4.15
2023-04-18T07:01:20.896Z,4.40
2023-04-18T07:03:48.632Z,3.38
2023-04-18T07:06:16.332Z,3.38
2023-04-18T07:08:43.798Z,2.63
2023-04-18T07:11:13.322Z,4.00
2023-04-18T07:13:40.736Z,5.40
2023-04-18T07:16:09.805Z,5.30
2023-04-18T07:18:38.569Z,4.05
2023-04-18T07:21:09.142Z,6.35
2023-04-18T07:23:38.148Z,5.60
2023-04-18T07:26:06.019Z,6.10
2023-04-18T07:28:33.680Z,7.35
2023-04-18T07:31:03.144Z,5.47
2023-04-18T07:33:35.087Z,3.08
2023-04-18T07:36:03.227Z,3.53
2023-04-18T07:38:30.776Z,2.90
2023-04-18T07:41:00.793Z,5.60
2023-04-18T07:43:28.347Z,11.10
2023-04-18T07:45:56.009Z,5.07
2023-04-18T07:48:25.151Z,4.78
2023-04-18T07:50:53.407Z,5.55
2023-04-18T07:55:48.473Z,4.47
2023-04-18T07:58:16.473Z,6.27
2023-04-18T08:00:44.908Z,8.18
2023-04-18T08:03:13.525Z,3.80
2023-04-18T08:05:42.963Z,3.72
2023-04-18T08:08:12.865Z,5.00
2023-04-18T08:10:40.437Z,5.10
2023-04-18T08:13:08.299Z,3.67
2023-04-18T08:18:03.768Z,10.27
2023-04-18T08:20:31.379Z,4.90
2023-04-18T08:23:07.653Z,5.20
2023-04-18T08:25:36.595Z,5.03
2023-04-18T08:30:32.031Z,5.72
2023-04-18T08:33:01.014Z,2.22
2023-04-18T08:35:28.727Z,3.00
2023-04-18T08:37:56.284Z,3.53
2023-04-18T08:40:25.040Z,3.30
2023-04-18T08:42:54.101Z,2.58
2023-04-18T08:45:21.578Z,4.32
2023-04-18T08:47:49.137Z,5.13
2023-04-18T08:50:17.293Z,3.40
2023-04-18T08:55:16.531Z,4.25
2023-04-18T08:57:44.854Z,3.13
2023-04-18T09:00:13.325Z,4.05
2023-04-18T09:02:47.118Z,2.38
2023-04-18T09:05:20.050Z,2.55
2023-04-18T09:07:50.041Z,3.08
2023-04-18T09:10:33.510Z,3.00
2023-04-18T09:13:04.410Z,3.60
2023-04-18T09:15:32.555Z,2.63
2023-04-18T09:18:03.412Z,2.63
2023-04-18T09:20:35.733Z,2.30
2023-04-18T09:23:11.017Z,2.55
2023-04-18T09:25:51.011Z,1.83
2023-04-18T09:28:27.591Z,2.95
2023-04-18T09:31:13.452Z,3.05
2023-04-18T09:33:54.536Z,3.00
2023-04-18T09:36:29.258Z,2.20
2023-04-18T09:38:57.347Z,2.47
2023-04-18T09:44:15.334Z,2.63
2023-04-18T09:46:47.086Z,2.20
2023-04-18T09:49:16.928Z,2.45
2023-04-18T09:51:46.270Z,2.13
2023-04-18T09:54:17.072Z,1.80
2023-04-18T09:56:46.387Z,1.80
2023-04-18T09:59:21.207Z,1.80
2023-04-18T10:01:50.872Z,2.20
2023-04-18T10:04:19.579Z,2.50
2023-04-18T10:06:47.419Z,2.40
2023-04-18T10:09:16.155Z,2.33
2023-04-18T10:11:44.838Z,2.88
2023-04-18T10:14:16.258Z,3.92
2023-04-18T10:16:49.275Z,3.00
2023-04-18T10:19:27.188Z,2.25
2023-04-18T10:22:00.936Z,2.20
2023-04-18T10:24:48.037Z,1.63
2023-04-18T10:27:17.849Z,1.90
2023-04-18T10:29:54.714Z,1.98
2023-04-18T10:32:23.787Z,2.05
2023-04-18T10:34:54.231Z,2.85
2023-04-18T10:37:21.803Z,1.67
2023-04-18T10:40:06.502Z,1.55
2023-04-18T10:42:52.247Z,1.80
2023-04-18T10:45:24.119Z,1.30
2023-04-18T10:48:32.746Z,2.03
2023-04-18T10:51:15.703Z,2.20
2023-04-18T10:53:56.509Z,3.80
2023-04-18T10:56:26.102Z,2.03
2023-04-18T10:58:54.273Z,1.17
2023-04-18T11:01:32.715Z,1.70
2023-04-18T11:04:01.613Z,1.27
2023-04-18T11:06:30.404Z,1.42
2023-04-18T11:09:13.554Z,1.50
2023-04-18T11:11:42.634Z,1.30
2023-04-18T11:14:10.622Z,1.30
2023-04-18T11:16:38.899Z,1.40
2023-04-18T11:19:27.324Z,1.15
2023-04-18T11:22:01.896Z,1.70
2023-04-18T11:24:29.576Z,1.50
2023-04-18T11:26:57.098Z,2.70
2023-04-18T11:29:24.619Z,1.98
2023-04-18T11:31:56.612Z,1.77
2023-04-18T11:34:31.099Z,2.05
2023-04-18T11:36:59.213Z,1.70
2023-04-18T11:39:26.747Z,2.17
2023-04-18T11:41:56.462Z,1.90
2023-04-18T11:44:25.860Z,1.75
2023-04-18T11:46:54.422Z,2.10
2023-04-18T11:49:30.366Z,3.63
2023-04-18T11:51:59.855Z,4.55
2023-04-18T11:54:44.938Z,9.30
2023-04-18T11:57:30.116Z,4.63
2023-04-18T12:00:00.893Z,2.58
2023-04-18T12:02:46.751Z,2.05
2023-04-18T12:05:32.835Z,2.33
2023-04-18T12:08:13.960Z,2.28
2023-04-18T12:10:52.264Z,1.70
2023-04-18T12:16:02.821Z,2.70
2023-04-18T12:18:31.469Z,1.70
2023-04-18T12:21:01.850Z,2.25
2023-04-18T12:23:38.822Z,1.85
2023-04-18T12:26:11.570Z,1.65
2023-04-18T12:28:39.250Z,1.50
2023-04-18T12:31:07.415Z,1.70
2023-04-18T12:36:08.176Z,1.27
2023-04-18T12:38:36.241Z,1.60
2023-04-18T12:41:03.912Z,1.27
2023-04-18T12:43:31.385Z,1.50
2023-04-18T12:45:59.592Z,4.27
2023-04-18T12:50:54.330Z,2.47
2023-04-18T12:53:23.380Z,2.05
2023-04-18T12:55:51.536Z,1.50
2023-04-18T12:58:20.630Z,1.98
2023-04-18T13:00:48.242Z,2.20
2023-04-18T13:03:16.005Z,1.40
2023-04-18T13:05:43.839Z,1.30
2023-04-18T13:08:16.732Z,1.75
2023-04-18T13:10:48.489Z,1.95
2023-04-18T13:13:16.113Z,2.03
2023-04-18T13:15:44.209Z,3.00
2023-04-18T13:18:11.915Z,5.10
2023-04-18T13:20:39.453Z,6.75
2023-04-18T13:23:06.941Z,1.77
2023-04-18T13:25:34.437Z,1.70
2023-04-18T13:28:02.040Z,7.32
2023-04-18T13:30:30.218Z,4.63
2023-04-18T13:32:58.232Z,6.70
2023-04-18T13:35:25.706Z,2.97
2023-04-18T13:37:53.240Z,2.47
2023-04-18T13:40:20.924Z,3.75
2023-04-18T13:42:48.420Z,3.03
2023-04-18T13:45:16.099Z,2.38
2023-04-18T13:47:43.641Z,5.72
2023-04-18T13:50:11.430Z,1.95
2023-04-18T13:52:39.025Z,1.60
2023-04-18T13:55:07.653Z,2.05
2023-04-18T13:57:37.338Z,1.48
2023-04-18T14:00:06.741Z,2.15
2023-04-18T14:02:39.548Z,3.10
2023-04-18T14:05:08.044Z,4.97
2023-04-18T14:07:36.389Z,1.83
2023-04-18T14:10:04.856Z,3.53
2023-04-18T14:12:32.348Z,2.28
2023-04-18T14:14:59.972Z,2.50
2023-04-18T14:17:27.419Z,1.92
2023-04-18T14:19:55.257Z,1.95
2023-04-18T14:22:22.846Z,3.03
2023-04-18T14:24:52.408Z,1.60
2023-04-18T14:27:20.457Z,1.40
2023-04-18T14:29:48.937Z,1.33
2023-04-18T14:32:17.010Z,1.48
2023-04-18T14:34:44.573Z,1.20
2023-04-18T14:37:14.620Z,1.50
2023-04-18T14:39:43.115Z,1.48
2023-04-18T14:42:10.929Z,1.80
2023-04-18T14:44:38.467Z,1.83
2023-04-18T14:47:06.614Z,1.50
2023-04-18T14:49:34.259Z,1.67
2023-04-18T14:52:01.919Z,1.50
2023-04-18T14:54:31.602Z,1.40
2023-04-18T14:57:01.549Z,1.50
2023-04-18T14:59:29.005Z,1.80
2023-04-18T15:01:57.787Z,1.70
2023-04-18T15:04:25.582Z,1.70
2023-04-18T15:06:53.098Z,1.63
2023-04-18T15:09:20.915Z,1.80
2023-04-18T15:11:48.356Z,1.75
2023-04-18T15:14:16.315Z,1.63
2023-04-18T15:19:11.474Z,1.90
2023-04-18T15:21:38.937Z,1.55
2023-04-18T15:24:07.012Z,1.77
2023-04-18T15:26:34.628Z,2.15
2023-04-18T15:29:05.515Z,1.80
2023-04-18T15:31:33.141Z,2.33
2023-04-18T15:34:01.260Z,2.33
2023-04-18T15:36:28.852Z,2.57
2023-04-18T15:38:56.357Z,1.90
2023-04-18T15:41:24.061Z,2.33
2023-04-18T15:43:52.935Z,2.30
2023-04-18T15:46:22.073Z,2.22
2023-04-18T15:48:49.653Z,3.35
2023-04-18T15:51:17.391Z,3.07
2023-04-18T15:53:44.871Z,3.35
2023-04-18T15:56:12.703Z,2.47
2023-04-18T15:58:41.362Z,3.10
2023-04-18T16:01:09.429Z,3.00
2023-04-18T16:03:37.328Z,2.90
2023-04-18T16:06:04.887Z,4.05
2023-04-18T16:08:33.364Z,3.22
2023-04-18T16:11:01.108Z,3.60
2023-04-18T16:13:28.594Z,6.87
2023-04-18T16:15:56.165Z,2.83
2023-04-18T16:18:23.843Z,3.28
2023-04-18T16:20:52.466Z,4.70
2023-04-18T16:23:20.523Z,4.10
2023-04-18T16:25:48.591Z,5.93
2023-04-18T16:28:16.320Z,9.45
2023-04-18T16:30:45.724Z,4.00
2023-04-18T16:33:13.522Z,6.47
2023-04-18T16:35:41.262Z,7.18
2023-04-18T16:38:08.794Z,9.55
2023-04-18T16:40:36.380Z,6.43
2023-04-18T16:43:04.023Z,9.32
2023-04-18T16:45:31.530Z,6.93
2023-04-18T16:47:59.167Z,9.13
2023-04-18T16:50:26.801Z,10.05
2023-04-18T16:52:54.481Z,6.35
2023-04-18T16:55:21.969Z,6.72
2023-04-18T16:57:49.902Z,5.40
2023-04-18T17:00:17.699Z,6.88
2023-04-18T17:02:45.407Z,8.38
2023-04-18T17:05:13.202Z,6.70
2023-04-18T17:07:40.723Z,16.13
2023-04-18T17:10:10.108Z,5.97
2023-04-18T17:12:37.900Z,8.38
2023-04-18T17:15:07.081Z,6.53
2023-04-18T17:17:35.461Z,6.60
2023-04-18T17:22:30.316Z,4.00
2023-04-18T17:24:57.736Z,5.80
2023-04-18T17:27:25.273Z,9.80
2023-04-18T17:29:52.677Z,6.73
2023-04-18T17:32:21.154Z,5.77
2023-04-18T17:34:48.773Z,5.38
2023-04-18T17:37:17.156Z,11.20
2023-04-18T17:39:44.687Z,9.00
2023-04-18T17:42:12.130Z,8.67
2023-04-18T17:44:39.791Z,8.13
2023-04-18T17:47:07.556Z,13.50
2023-04-18T17:49:35.999Z,9.98
2023-04-18T17:52:04.536Z,18.10
2023-04-18T17:54:32.925Z,6.78
2023-04-18T17:59:29.492Z,16.77
2023-04-18T18:01:57.585Z,15.85
2023-04-18T18:04:26.704Z,14.98
2023-04-18T18:06:58.431Z,11.95
2023-04-18T18:09:25.945Z,21.83
2023-04-18T18:11:55.817Z,15.95
2023-04-18T18:14:23.636Z,13.68
2023-04-18T18:16:51.209Z,10.70
2023-04-18T18:19:20.419Z,8.90
2023-04-18T18:21:47.835Z,8.90
2023-04-18T18:24:15.335Z,9.80
2023-04-18T18:26:42.848Z,15.93
2023-04-18T18:29:11.165Z,15.13
2023-04-18T18:34:06.525Z,19.00
2023-04-18T18:36:35.172Z,18.00
2023-04-18T18:39:02.679Z,12.32
2023-04-18T18:41:30.632Z,10.27
2023-04-18T18:43:58.060Z,11.38
2023-04-18T18:46:27.716Z,19.40
2023-04-18T18:48:55.412Z,27.23
2023-04-18T18:51:23.768Z,30.23
2023-04-18T18:56:18.484Z,12.57
2023-04-18T18:58:46.019Z,13.47
2023-04-18T19:01:14.682Z,9.00
2023-04-18T19:03:42.570Z,11.13
2023-04-18T19:06:10.364Z,9.35
2023-04-18T19:08:37.836Z,8.00
2023-04-18T19:11:05.379Z,6.07
2023-04-18T19:13:32.901Z,6.67
2023-04-18T19:16:00.507Z,6.70
2023-04-18T19:18:28.071Z,8.35
2023-04-18T19:20:56.827Z,10.93
2023-04-18T19:23:25.302Z,10.60
2023-04-18T19:25:52.783Z,11.80
2023-04-18T19:28:20.347Z,12.83
2023-04-18T19:30:48.350Z,13.10
2023-04-18T19:33:16.366Z,12.45
2023-04-18T19:35:43.872Z,12.48
2023-04-18T19:38:11.406Z,12.80
2023-04-18T19:40:39.089Z,9.77
2023-04-18T19:43:06.532Z,7.97
2023-04-18T19:45:34.108Z,8.17
2023-04-18T19:48:01.846Z,8.23
2023-04-18T19:50:29.387Z,7.88
2023-04-18T19:52:56.892Z,7.10
2023-04-18T19:55:25.732Z,8.30
2023-04-18T19:57:59.430Z,10.73
2023-04-18T20:00:27.760Z,13.52
2023-04-18T20:02:55.541Z,12.65
2023-04-18T20:05:23.214Z,12.13
2023-04-18T20:07:50.867Z,13.55
2023-04-18T20:10:23.687Z,11.97
2023-04-18T20:12:51.175Z,11.52
2023-04-18T20:15:18.744Z,9.37
2023-04-18T20:17:46.338Z,8.85
2023-04-18T20:20:13.979Z,8.83
2023-04-18T20:22:44.814Z,9.10
2023-04-18T20:25:12.888Z,9.73
2023-04-18T20:27:40.372Z,10.35
2023-04-18T20:30:08.662Z,11.05
2023-04-18T20:32:36.927Z,11.13
2023-04-18T20:37:36.635Z,10.13
2023-04-18T20:40:11.287Z,9.98
2023-04-18T20:42:39.956Z,10.98
2023-04-18T20:45:12.839Z,10.73
2023-04-18T20:47:43.790Z,11.30
2023-04-18T20:50:11.443Z,12.73
2023-04-18T20:52:42.569Z,13.10
2023-04-18T20:55:11.090Z,13.30
2023-04-18T21:00:09.992Z,12.52
2023-04-18T21:02:39.178Z,10.77
2023-04-18T21:05:07.635Z,10.68
2023-04-18T21:07:38.091Z,11.70
2023-04-18T21:10:06.265Z,11.27
2023-04-18T21:12:33.958Z,12.57
2023-04-18T21:15:01.526Z,12.10
2023-04-18T21:17:30.540Z,14.37
2023-04-18T21:19:58.069Z,21.85
2023-04-18T21:22:27.256Z,25.37
2023-04-18T21:24:54.765Z,20.10
2023-04-18T21:27:22.270Z,19.20
2023-04-18T21:29:49.747Z,16.60
2023-04-18T21:32:17.202Z,15.57
2023-04-18T21:34:44.955Z,14.13
2023-04-18T21:37:12.416Z,11.55
2023-04-18T21:39:39.847Z,10.77
2023-04-18T21:42:07.291Z,10.90
2023-04-18T21:44:35.246Z,11.80
2023-04-18T21:47:02.706Z,11.23
2023-04-18T21:49:30.226Z,12.13
2023-04-18T21:51:57.665Z,12.17
2023-04-18T21:54:25.240Z,13.67
2023-04-18T21:56:52.676Z,13.97
2023-04-18T21:59:21.030Z,12.27
2023-04-18T22:01:48.491Z,13.90
2023-04-18T22:04:16.816Z,18.42
2023-04-18T22:06:44.636Z,15.48
2023-04-18T22:09:12.737Z,13.73
2023-04-18T22:11:40.300Z,13.57
2023-04-18T22:14:09.949Z,12.60
2023-04-18T22:16:38.313Z,13.90
2023-04-18T22:21:33.946Z,18.50
2023-04-18T22:24:01.545Z,15.52
2023-04-18T22:26:29.112Z,17.40
2023-04-18T22:28:56.574Z,18.87
2023-04-18T22:31:24.151Z,17.23
2023-04-18T22:33:51.809Z,18.03
2023-04-18T22:36:19.309Z,26.00
2023-04-18T22:38:46.821Z,23.10
2023-04-18T22:41:14.493Z,25.90
2023-04-18T22:43:43.869Z,23.60
2023-04-18T22:46:11.744Z,22.63
2023-04-18T22:48:39.208Z,23.20
2023-04-18T22:51:06.851Z,22.08
2023-04-18T22:53:34.395Z,21.63
2023-04-18T22:56:01.821Z,20.03
2023-04-18T22:58:29.754Z,20.95
2023-04-18T23:00:57.303Z,21.13
2023-04-18T23:03:24.898Z,21.70
2023-04-18T23:05:52.604Z,26.88
2023-04-18T23:08:22.577Z,21.77
2023-04-18T23:10:50.132Z,19.38
2023-04-18T23:13:17.594Z,19.20
2023-04-18T23:15:45.082Z,21.33
2023-04-18T23:18:12.688Z,20.10
2023-04-18T23:20:40.355Z,15.13
2023-04-18T23:23:07.845Z,13.77
2023-04-18T23:25:35.337Z,12.93
2023-04-18T23:28:02.949Z,12.93
